Terminal Aerodrome Forecast
Issued by NWS

Home | Current Version | Previous Version | Text Only | Print | Product List | Glossary On
Versions: 1 2 3 4 5 6 7 8 9 10 11 12 13 14 15 16 17 18 19 20 21 22 23 24 25 26 27 28 29
000
FTUS45 KGJT 241120
TAFASE
TAF
KASE 241120Z 2412/2512 17008KT P6SM VCTS SCT080CB BKN110
      TEMPO 2412/2415 VRB15G25KT -SHRA BKN080
     FM241500 VRB03KT P6SM VCSH SCT090 BKN120
     FM241800 17007KT P6SM -SHRA SCT070 BKN100
      TEMPO 2418/2422 VRB15G25KT TSRA SCT050 BKN080CB
     FM242200 15007KT P6SM VCTS SCT070CB BKN100
      TEMPO 2422/2502 VRB15G25KT -SHRA SCT050 BKN070
     FM250200 19005KT P6SM VCSH SCT060 BKN080=

USA.gov is the U.S. government's official web portal to all federal, state and local government web resources and services.